sensor_id;sensor_type;location;lat;lon;timestamp;P1;durP1;ratioP1;P2;durP2;ratioP2
48873;SDS011;66155;46.204;5.220;2023-07-31T00:02:17;4.03;;;2.38;;
48873;SDS011;66155;46.204;5.220;2023-07-31T00:07:18;3.45;;;2.30;;
48873;SDS011;66155;46.204;5.220;2023-07-31T00:12:18;3.40;;;2.35;;
48873;SDS011;66155;46.204;5.220;2023-07-31T00:17:19;6.32;;;2.53;;
48873;SDS011;66155;46.204;5.220;2023-07-31T00:22:19;2.83;;;2.13;;
48873;SDS011;66155;46.204;5.220;2023-07-31T00:27:20;5.65;;;2.10;;
48873;SDS011;66155;46.204;5.220;2023-07-31T00:32:20;4.55;;;2.13;;
48873;SDS011;66155;46.204;5.220;2023-07-31T00:37:21;5.57;;;2.60;;
48873;SDS011;66155;46.204;5.220;2023-07-31T00:42:21;4.35;;;2.25;;
48873;SDS011;66155;46.204;5.220;2023-07-31T00:47:22;3.88;;;2.25;;
48873;SDS011;66155;46.204;5.220;2023-07-31T00:52:22;4.45;;;2.20;;
48873;SDS011;66155;46.204;5.220;2023-07-31T00:57:23;4.00;;;2.33;;
48873;SDS011;66155;46.204;5.220;2023-07-31T01:02:23;5.15;;;2.40;;
48873;SDS011;66155;46.204;5.220;2023-07-31T01:07:31;3.90;;;2.50;;
48873;SDS011;66155;46.204;5.220;2023-07-31T01:12:32;4.32;;;2.45;;
48873;SDS011;66155;46.204;5.220;2023-07-31T01:17:37;3.50;;;2.30;;
48873;SDS011;66155;46.204;5.220;2023-07-31T01:28:13;4.22;;;2.03;;
48873;SDS011;66155;46.204;5.220;2023-07-31T01:33:32;7.28;;;2.60;;
48873;SDS011;66155;46.204;5.220;2023-07-31T01:38:33;4.32;;;2.42;;
48873;SDS011;66155;46.204;5.220;2023-07-31T01:43:33;2.97;;;2.38;;
48873;SDS011;66155;46.204;5.220;2023-07-31T01:48:34;3.47;;;2.45;;
48873;SDS011;66155;46.204;5.220;2023-07-31T01:53:40;3.35;;;2.22;;
48873;SDS011;66155;46.204;5.220;2023-07-31T01:58:41;6.15;;;2.72;;
48873;SDS011;66155;46.204;5.220;2023-07-31T02:03:42;5.18;;;2.30;;
48873;SDS011;66155;46.204;5.220;2023-07-31T02:08:43;8.73;;;2.60;;
48873;SDS011;66155;46.204;5.220;2023-07-31T02:13:45;3.95;;;2.58;;
48873;SDS011;66155;46.204;5.220;2023-07-31T02:18:45;2.97;;;2.20;;
48873;SDS011;66155;46.204;5.220;2023-07-31T02:23:46;4.00;;;2.38;;
48873;SDS011;66155;46.204;5.220;2023-07-31T02:28:46;3.30;;;2.20;;
48873;SDS011;66155;46.204;5.220;2023-07-31T02:33:47;5.45;;;2.70;;
48873;SDS011;66155;46.204;5.220;2023-07-31T02:38:47;3.50;;;3.20;;
48873;SDS011;66155;46.204;5.220;2023-07-31T02:43:48;5.72;;;3.20;;
48873;SDS011;66155;46.204;5.220;2023-07-31T02:48:48;4.93;;;2.58;;
48873;SDS011;66155;46.204;5.220;2023-07-31T02:53:49;3.90;;;2.50;;
48873;SDS011;66155;46.204;5.220;2023-07-31T02:58:52;4.93;;;2.30;;
48873;SDS011;66155;46.204;5.220;2023-07-31T03:03:52;3.80;;;2.33;;
48873;SDS011;66155;46.204;5.220;2023-07-31T03:08:53;4.15;;;2.20;;
48873;SDS011;66155;46.204;5.220;2023-07-31T03:13:53;5.50;;;2.63;;
48873;SDS011;66155;46.204;5.220;2023-07-31T03:18:54;4.45;;;2.30;;
48873;SDS011;66155;46.204;5.220;2023-07-31T03:23:54;6.68;;;2.35;;
48873;SDS011;66155;46.204;5.220;2023-07-31T03:28:55;4.40;;;2.53;;
48873;SDS011;66155;46.204;5.220;2023-07-31T03:33:58;5.72;;;2.50;;
48873;SDS011;66155;46.204;5.220;2023-07-31T03:38:58;4.45;;;2.05;;
48873;SDS011;66155;46.204;5.220;2023-07-31T03:44:02;3.72;;;2.00;;
48873;SDS011;66155;46.204;5.220;2023-07-31T03:49:02;5.63;;;2.28;;
48873;SDS011;66155;46.204;5.220;2023-07-31T03:54:03;5.25;;;2.47;;
48873;SDS011;66155;46.204;5.220;2023-07-31T03:59:04;4.55;;;2.42;;
48873;SDS011;66155;46.204;5.220;2023-07-31T04:04:04;3.63;;;1.83;;
48873;SDS011;66155;46.204;5.220;2023-07-31T04:09:05;4.90;;;2.30;;
48873;SDS011;66155;46.204;5.220;2023-07-31T04:14:05;2.63;;;2.10;;
48873;SDS011;66155;46.204;5.220;2023-07-31T04:19:06;4.15;;;2.10;;
48873;SDS011;66155;46.204;5.220;2023-07-31T04:24:06;4.50;;;2.30;;
48873;SDS011;66155;46.204;5.220;2023-07-31T04:29:07;5.28;;;2.38;;
48873;SDS011;66155;46.204;5.220;2023-07-31T04:34:07;5.13;;;2.08;;
48873;SDS011;66155;46.204;5.220;2023-07-31T04:39:09;5.95;;;2.10;;
48873;SDS011;66155;46.204;5.220;2023-07-31T04:44:09;3.35;;;2.00;;
48873;SDS011;66155;46.204;5.220;2023-07-31T04:49:11;3.63;;;2.10;;
48873;SDS011;66155;46.204;5.220;2023-07-31T04:54:12;2.78;;;2.15;;
48873;SDS011;66155;46.204;5.220;2023-07-31T04:59:14;5.57;;;2.13;;
48873;SDS011;66155;46.204;5.220;2023-07-31T05:04:18;7.50;;;2.55;;
48873;SDS011;66155;46.204;5.220;2023-07-31T05:09:19;3.75;;;2.72;;
48873;SDS011;66155;46.204;5.220;2023-07-31T05:14:19;4.13;;;2.45;;
48873;SDS011;66155;46.204;5.220;2023-07-31T05:19:20;7.85;;;2.40;;
48873;SDS011;66155;46.204;5.220;2023-07-31T05:24:20;5.63;;;2.88;;
48873;SDS011;66155;46.204;5.220;2023-07-31T05:29:21;4.60;;;2.40;;
48873;SDS011;66155;46.204;5.220;2023-07-31T05:34:22;6.68;;;2.22;;
48873;SDS011;66155;46.204;5.220;2023-07-31T05:39:22;4.43;;;2.17;;
48873;SDS011;66155;46.204;5.220;2023-07-31T05:44:23;3.80;;;2.75;;
48873;SDS011;66155;46.204;5.220;2023-07-31T05:49:23;5.15;;;2.30;;
48873;SDS011;66155;46.204;5.220;2023-07-31T05:54:24;4.28;;;1.92;;
48873;SDS011;66155;46.204;5.220;2023-07-31T05:59:24;3.10;;;2.05;;
48873;SDS011;66155;46.204;5.220;2023-07-31T06:04:25;4.55;;;2.15;;
48873;SDS011;66155;46.204;5.220;2023-07-31T06:09:25;5.30;;;2.25;;
48873;SDS011;66155;46.204;5.220;2023-07-31T06:14:26;4.50;;;2.97;;
48873;SDS011;66155;46.204;5.220;2023-07-31T06:19:26;6.90;;;2.43;;
48873;SDS011;66155;46.204;5.220;2023-07-31T06:24:27;3.88;;;2.78;;
48873;SDS011;66155;46.204;5.220;2023-07-31T06:29:28;2.85;;;2.33;;
48873;SDS011;66155;46.204;5.220;2023-07-31T06:34:28;5.72;;;2.30;;
48873;SDS011;66155;46.204;5.220;2023-07-31T06:39:29;4.50;;;1.90;;
48873;SDS011;66155;46.204;5.220;2023-07-31T06:44:29;4.63;;;2.30;;
48873;SDS011;66155;46.204;5.220;2023-07-31T06:49:30;2.75;;;2.20;;
48873;SDS011;66155;46.204;5.220;2023-07-31T06:54:30;4.90;;;2.67;;
48873;SDS011;66155;46.204;5.220;2023-07-31T06:59:46;4.30;;;2.67;;
48873;SDS011;66155;46.204;5.220;2023-07-31T07:04:46;4.00;;;2.20;;
48873;SDS011;66155;46.204;5.220;2023-07-31T07:09:46;3.72;;;2.17;;
48873;SDS011;66155;46.204;5.220;2023-07-31T07:14:46;9.03;;;2.67;;
48873;SDS011;66155;46.204;5.220;2023-07-31T07:19:47;5.10;;;2.42;;
48873;SDS011;66155;46.204;5.220;2023-07-31T07:24:48;5.45;;;2.30;;
48873;SDS011;66155;46.204;5.220;2023-07-31T07:29:49;3.43;;;2.20;;
48873;SDS011;66155;46.204;5.220;2023-07-31T07:34:50;4.00;;;2.50;;
48873;SDS011;66155;46.204;5.220;2023-07-31T07:39:50;3.77;;;2.27;;
48873;SDS011;66155;46.204;5.220;2023-07-31T07:44:50;3.83;;;2.30;;
48873;SDS011;66155;46.204;5.220;2023-07-31T07:49:51;5.18;;;2.58;;
48873;SDS011;66155;46.204;5.220;2023-07-31T07:54:51;3.92;;;2.38;;
48873;SDS011;66155;46.204;5.220;2023-07-31T07:59:51;3.33;;;2.03;;
48873;SDS011;66155;46.204;5.220;2023-07-31T08:04:52;6.10;;;2.30;;
48873;SDS011;66155;46.204;5.220;2023-07-31T08:09:52;3.83;;;2.00;;
48873;SDS011;66155;46.204;5.220;2023-07-31T08:14:52;4.80;;;2.87;;
48873;SDS011;66155;46.204;5.220;2023-07-31T08:19:53;4.40;;;2.33;;
48873;SDS011;66155;46.204;5.220;2023-07-31T08:24:53;5.23;;;2.97;;
48873;SDS011;66155;46.204;5.220;2023-07-31T08:29:53;4.00;;;2.70;;
48873;SDS011;66155;46.204;5.220;2023-07-31T08:34:54;3.40;;;2.35;;
48873;SDS011;66155;46.204;5.220;2023-07-31T08:39:54;4.03;;;2.33;;
48873;SDS011;66155;46.204;5.220;2023-07-31T08:44:55;4.43;;;2.50;;
48873;SDS011;66155;46.204;5.220;2023-07-31T08:49:56;3.95;;;2.50;;
48873;SDS011;66155;46.204;5.220;2023-07-31T08:54:57;4.60;;;2.15;;
48873;SDS011;66155;46.204;5.220;2023-07-31T08:59:58;5.43;;;2.50;;
48873;SDS011;66155;46.204;5.220;2023-07-31T09:04:58;6.78;;;2.50;;
48873;SDS011;66155;46.204;5.220;2023-07-31T09:09:59;7.90;;;4.30;;
48873;SDS011;66155;46.204;5.220;2023-07-31T09:14:59;3.00;;;2.23;;
48873;SDS011;66155;46.204;5.220;2023-07-31T09:20:19;4.47;;;2.15;;
48873;SDS011;66155;46.204;5.220;2023-07-31T09:25:21;4.18;;;2.15;;
48873;SDS011;66155;46.204;5.220;2023-07-31T09:30:22;7.15;;;2.65;;
48873;SDS011;66155;46.204;5.220;2023-07-31T09:35:27;5.07;;;2.50;;
48873;SDS011;66155;46.204;5.220;2023-07-31T09:40:32;4.88;;;2.30;;
48873;SDS011;66155;46.204;5.220;2023-07-31T09:45:35;4.38;;;2.40;;
48873;SDS011;66155;46.204;5.220;2023-07-31T09:50:37;4.72;;;2.33;;
48873;SDS011;66155;46.204;5.220;2023-07-31T09:55:39;4.28;;;2.65;;
48873;SDS011;66155;46.204;5.220;2023-07-31T10:00:40;5.65;;;2.30;;
48873;SDS011;66155;46.204;5.220;2023-07-31T10:05:42;6.57;;;2.63;;
48873;SDS011;66155;46.204;5.220;2023-07-31T10:10:43;4.97;;;2.20;;
48873;SDS011;66155;46.204;5.220;2023-07-31T10:15:44;4.55;;;2.40;;
48873;SDS011;66155;46.204;5.220;2023-07-31T10:20:45;4.05;;;2.30;;
48873;SDS011;66155;46.204;5.220;2023-07-31T10:25:46;5.70;;;2.80;;
48873;SDS011;66155;46.204;5.220;2023-07-31T10:30:47;3.97;;;2.58;;
48873;SDS011;66155;46.204;5.220;2023-07-31T10:35:49;7.43;;;3.30;;
48873;SDS011;66155;46.204;5.220;2023-07-31T10:40:49;7.67;;;3.20;;
48873;SDS011;66155;46.204;5.220;2023-07-31T10:45:49;5.10;;;2.50;;
48873;SDS011;66155;46.204;5.220;2023-07-31T10:50:51;4.23;;;2.80;;
48873;SDS011;66155;46.204;5.220;2023-07-31T10:55:51;5.13;;;2.88;;
48873;SDS011;66155;46.204;5.220;2023-07-31T11:00:55;4.03;;;2.50;;
48873;SDS011;66155;46.204;5.220;2023-07-31T11:16:02;3.42;;;2.42;;
48873;SDS011;66155;46.204;5.220;2023-07-31T11:21:02;3.87;;;2.87;;
48873;SDS011;66155;46.204;5.220;2023-07-31T11:26:04;7.93;;;3.37;;
48873;SDS011;66155;46.204;5.220;2023-07-31T11:31:05;4.95;;;2.70;;
48873;SDS011;66155;46.204;5.220;2023-07-31T11:36:05;4.88;;;3.05;;
48873;SDS011;66155;46.204;5.220;2023-07-31T11:41:06;4.77;;;3.27;;
48873;SDS011;66155;46.204;5.220;2023-07-31T11:46:06;4.53;;;3.13;;
48873;SDS011;66155;46.204;5.220;2023-07-31T11:51:08;3.67;;;3.03;;
48873;SDS011;66155;46.204;5.220;2023-07-31T11:56:11;6.20;;;2.97;;
48873;SDS011;66155;46.204;5.220;2023-07-31T12:01:13;6.28;;;3.20;;
48873;SDS011;66155;46.204;5.220;2023-07-31T12:06:14;3.88;;;3.00;;
48873;SDS011;66155;46.204;5.220;2023-07-31T12:11:14;5.37;;;3.93;;
48873;SDS011;66155;46.204;5.220;2023-07-31T12:16:15;3.72;;;2.67;;
48873;SDS011;66155;46.204;5.220;2023-07-31T12:21:15;5.27;;;3.40;;
48873;SDS011;66155;46.204;5.220;2023-07-31T12:26:16;5.75;;;4.05;;
48873;SDS011;66155;46.204;5.220;2023-07-31T12:31:17;4.97;;;3.50;;
48873;SDS011;66155;46.204;5.220;2023-07-31T12:36:18;5.22;;;3.60;;
48873;SDS011;66155;46.204;5.220;2023-07-31T12:41:20;5.93;;;3.53;;
48873;SDS011;66155;46.204;5.220;2023-07-31T12:46:20;7.68;;;3.63;;
48873;SDS011;66155;46.204;5.220;2023-07-31T12:51:20;8.03;;;3.67;;
48873;SDS011;66155;46.204;5.220;2023-07-31T12:56:21;9.68;;;3.03;;
48873;SDS011;66155;46.204;5.220;2023-07-31T13:01:21;5.27;;;3.90;;
48873;SDS011;66155;46.204;5.220;2023-07-31T13:06:22;6.50;;;3.67;;
48873;SDS011;66155;46.204;5.220;2023-07-31T13:11:22;5.97;;;3.78;;
48873;SDS011;66155;46.204;5.220;2023-07-31T13:16:23;6.97;;;3.90;;
48873;SDS011;66155;46.204;5.220;2023-07-31T13:21:23;6.57;;;3.90;;
48873;SDS011;66155;46.204;5.220;2023-07-31T13:26:23;4.88;;;3.78;;
48873;SDS011;66155;46.204;5.220;2023-07-31T13:31:23;6.60;;;3.83;;
48873;SDS011;66155;46.204;5.220;2023-07-31T13:36:24;6.60;;;3.20;;
48873;SDS011;66155;46.204;5.220;2023-07-31T13:41:24;5.90;;;3.60;;
48873;SDS011;66155;46.204;5.220;2023-07-31T13:46:24;6.87;;;3.97;;
48873;SDS011;66155;46.204;5.220;2023-07-31T13:51:25;6.75;;;4.20;;
48873;SDS011;66155;46.204;5.220;2023-07-31T13:56:27;7.35;;;3.95;;
48873;SDS011;66155;46.204;5.220;2023-07-31T14:01:27;4.63;;;3.43;;
48873;SDS011;66155;46.204;5.220;2023-07-31T14:06:28;7.87;;;4.13;;
48873;SDS011;66155;46.204;5.220;2023-07-31T14:11:28;5.57;;;3.30;;
48873;SDS011;66155;46.204;5.220;2023-07-31T14:16:29;7.53;;;3.60;;
48873;SDS011;66155;46.204;5.220;2023-07-31T14:21:29;5.20;;;3.30;;
48873;SDS011;66155;46.204;5.220;2023-07-31T14:26:29;4.57;;;3.70;;
48873;SDS011;66155;46.204;5.220;2023-07-31T14:31:30;6.47;;;3.83;;
48873;SDS011;66155;46.204;5.220;2023-07-31T14:36:30;6.20;;;4.27;;
48873;SDS011;66155;46.204;5.220;2023-07-31T14:41:30;7.07;;;3.88;;
48873;SDS011;66155;46.204;5.220;2023-07-31T14:46:31;4.97;;;3.60;;
48873;SDS011;66155;46.204;5.220;2023-07-31T14:51:31;5.90;;;4.53;;
48873;SDS011;66155;46.204;5.220;2023-07-31T14:56:31;7.47;;;4.70;;
48873;SDS011;66155;46.204;5.220;2023-07-31T15:01:31;5.55;;;5.05;;
48873;SDS011;66155;46.204;5.220;2023-07-31T15:06:32;5.80;;;3.90;;
48873;SDS011;66155;46.204;5.220;2023-07-31T15:11:32;5.65;;;3.40;;
48873;SDS011;66155;46.204;5.220;2023-07-31T15:16:32;5.10;;;4.50;;
48873;SDS011;66155;46.204;5.220;2023-07-31T15:21:33;7.60;;;4.15;;
48873;SDS011;66155;46.204;5.220;2023-07-31T15:26:33;7.43;;;5.90;;
48873;SDS011;66155;46.204;5.220;2023-07-31T15:31:34;8.02;;;4.15;;
48873;SDS011;66155;46.204;5.220;2023-07-31T15:36:34;5.53;;;3.78;;
48873;SDS011;66155;46.204;5.220;2023-07-31T15:41:35;5.30;;;3.88;;
48873;SDS011;66155;46.204;5.220;2023-07-31T15:46:35;4.57;;;3.72;;
48873;SDS011;66155;46.204;5.220;2023-07-31T15:51:35;4.30;;;3.58;;
48873;SDS011;66155;46.204;5.220;2023-07-31T15:56:35;7.25;;;4.10;;
48873;SDS011;66155;46.204;5.220;2023-07-31T16:01:36;4.37;;;3.97;;
48873;SDS011;66155;46.204;5.220;2023-07-31T16:06:36;5.13;;;3.50;;
48873;SDS011;66155;46.204;5.220;2023-07-31T16:11:37;5.45;;;3.75;;
48873;SDS011;66155;46.204;5.220;2023-07-31T16:16:37;6.67;;;3.77;;
48873;SDS011;66155;46.204;5.220;2023-07-31T16:21:37;4.33;;;3.20;;
48873;SDS011;66155;46.204;5.220;2023-07-31T16:26:38;4.27;;;3.30;;
48873;SDS011;66155;46.204;5.220;2023-07-31T16:31:38;4.88;;;3.00;;
48873;SDS011;66155;46.204;5.220;2023-07-31T16:36:38;6.87;;;3.57;;
48873;SDS011;66155;46.204;5.220;2023-07-31T16:41:38;4.27;;;3.60;;
48873;SDS011;66155;46.204;5.220;2023-07-31T16:46:39;4.85;;;3.00;;
48873;SDS011;66155;46.204;5.220;2023-07-31T16:51:39;6.17;;;3.27;;
48873;SDS011;66155;46.204;5.220;2023-07-31T16:56:40;6.00;;;3.78;;
48873;SDS011;66155;46.204;5.220;2023-07-31T17:01:40;4.65;;;3.38;;
48873;SDS011;66155;46.204;5.220;2023-07-31T17:06:40;5.60;;;3.83;;
48873;SDS011;66155;46.204;5.220;2023-07-31T17:11:41;6.15;;;3.65;;
48873;SDS011;66155;46.204;5.220;2023-07-31T17:16:41;4.63;;;3.40;;
48873;SDS011;66155;46.204;5.220;2023-07-31T17:21:42;5.80;;;3.60;;
48873;SDS011;66155;46.204;5.220;2023-07-31T17:26:42;6.03;;;3.65;;
48873;SDS011;66155;46.204;5.220;2023-07-31T17:31:42;6.00;;;3.25;;
48873;SDS011;66155;46.204;5.220;2023-07-31T17:36:43;5.30;;;3.95;;
48873;SDS011;66155;46.204;5.220;2023-07-31T17:41:43;7.43;;;3.30;;
48873;SDS011;66155;46.204;5.220;2023-07-31T17:46:43;5.30;;;3.53;;
48873;SDS011;66155;46.204;5.220;2023-07-31T17:51:43;5.47;;;3.75;;
48873;SDS011;66155;46.204;5.220;2023-07-31T17:56:44;6.65;;;3.20;;
48873;SDS011;66155;46.204;5.220;2023-07-31T18:01:44;6.67;;;3.57;;
48873;SDS011;66155;46.204;5.220;2023-07-31T18:06:45;5.20;;;4.05;;
48873;SDS011;66155;46.204;5.220;2023-07-31T18:11:45;5.73;;;4.00;;
48873;SDS011;66155;46.204;5.220;2023-07-31T18:16:46;4.85;;;3.30;;
48873;SDS011;66155;46.204;5.220;2023-07-31T18:21:47;5.97;;;3.93;;
48873;SDS011;66155;46.204;5.220;2023-07-31T18:26:47;5.40;;;3.30;;
48873;SDS011;66155;46.204;5.220;2023-07-31T18:31:47;8.53;;;3.40;;
48873;SDS011;66155;46.204;5.220;2023-07-31T18:36:48;5.28;;;3.53;;
48873;SDS011;66155;46.204;5.220;2023-07-31T18:41:48;6.63;;;3.70;;
48873;SDS011;66155;46.204;5.220;2023-07-31T18:46:48;5.78;;;3.60;;
48873;SDS011;66155;46.204;5.220;2023-07-31T18:51:49;5.53;;;3.42;;
48873;SDS011;66155;46.204;5.220;2023-07-31T18:56:49;5.40;;;3.53;;
48873;SDS011;66155;46.204;5.220;2023-07-31T19:01:49;5.80;;;3.60;;
48873;SDS011;66155;46.204;5.220;2023-07-31T19:06:50;6.53;;;3.87;;
48873;SDS011;66155;46.204;5.220;2023-07-31T19:11:50;7.90;;;3.80;;
48873;SDS011;66155;46.204;5.220;2023-07-31T19:16:50;5.83;;;3.30;;
48873;SDS011;66155;46.204;5.220;2023-07-31T19:21:51;6.05;;;3.67;;
48873;SDS011;66155;46.204;5.220;2023-07-31T19:26:52;6.85;;;5.03;;
48873;SDS011;66155;46.204;5.220;2023-07-31T19:31:52;6.87;;;3.37;;
48873;SDS011;66155;46.204;5.220;2023-07-31T19:36:52;4.07;;;2.67;;
48873;SDS011;66155;46.204;5.220;2023-07-31T19:41:53;6.53;;;3.58;;
48873;SDS011;66155;46.204;5.220;2023-07-31T19:46:53;7.20;;;3.40;;
48873;SDS011;66155;46.204;5.220;2023-07-31T19:51:54;5.05;;;2.95;;
48873;SDS011;66155;46.204;5.220;2023-07-31T19:56:54;3.87;;;2.70;;
48873;SDS011;66155;46.204;5.220;2023-07-31T20:01:54;4.82;;;3.00;;
48873;SDS011;66155;46.204;5.220;2023-07-31T20:06:55;5.45;;;3.17;;
48873;SDS011;66155;46.204;5.220;2023-07-31T20:11:56;5.10;;;2.97;;
48873;SDS011;66155;46.204;5.220;2023-07-31T20:16:56;6.90;;;3.30;;
48873;SDS011;66155;46.204;5.220;2023-07-31T20:21:57;6.30;;;2.90;;
48873;SDS011;66155;46.204;5.220;2023-07-31T20:26:57;4.33;;;2.87;;
48873;SDS011;66155;46.204;5.220;2023-07-31T20:31:57;6.73;;;3.33;;
48873;SDS011;66155;46.204;5.220;2023-07-31T20:36:58;4.27;;;3.00;;
48873;SDS011;66155;46.204;5.220;2023-07-31T20:41:58;10.70;;;3.60;;
48873;SDS011;66155;46.204;5.220;2023-07-31T20:46:59;4.63;;;3.00;;
48873;SDS011;66155;46.204;5.220;2023-07-31T20:52:03;5.10;;;3.08;;
48873;SDS011;66155;46.204;5.220;2023-07-31T20:57:04;4.95;;;2.70;;
48873;SDS011;66155;46.204;5.220;2023-07-31T21:02:04;6.03;;;3.65;;
48873;SDS011;66155;46.204;5.220;2023-07-31T21:07:05;5.47;;;2.80;;
48873;SDS011;66155;46.204;5.220;2023-07-31T21:12:07;8.35;;;3.08;;
48873;SDS011;66155;46.204;5.220;2023-07-31T21:17:08;3.60;;;3.03;;
48873;SDS011;66155;46.204;5.220;2023-07-31T21:22:08;6.07;;;3.13;;
48873;SDS011;66155;46.204;5.220;2023-07-31T21:27:08;9.43;;;3.40;;
48873;SDS011;66155;46.204;5.220;2023-07-31T21:32:09;5.73;;;3.40;;
48873;SDS011;66155;46.204;5.220;2023-07-31T21:37:10;6.10;;;3.40;;
48873;SDS011;66155;46.204;5.220;2023-07-31T21:42:11;7.65;;;3.80;;
48873;SDS011;66155;46.204;5.220;2023-07-31T21:47:11;4.77;;;3.00;;
48873;SDS011;66155;46.204;5.220;2023-07-31T21:52:11;6.07;;;3.00;;
48873;SDS011;66155;46.204;5.220;2023-07-31T21:57:11;7.20;;;3.10;;
48873;SDS011;66155;46.204;5.220;2023-07-31T22:02:12;8.53;;;3.07;;
48873;SDS011;66155;46.204;5.220;2023-07-31T22:07:12;4.83;;;3.30;;
48873;SDS011;66155;46.204;5.220;2023-07-31T22:12:12;5.37;;;3.57;;
48873;SDS011;66155;46.204;5.220;2023-07-31T22:17:13;6.50;;;3.63;;
48873;SDS011;66155;46.204;5.220;2023-07-31T22:22:13;4.57;;;3.23;;
48873;SDS011;66155;46.204;5.220;2023-07-31T22:27:14;4.20;;;2.90;;
48873;SDS011;66155;46.204;5.220;2023-07-31T22:32:14;6.43;;;3.70;;
48873;SDS011;66155;46.204;5.220;2023-07-31T22:37:15;6.03;;;3.35;;
48873;SDS011;66155;46.204;5.220;2023-07-31T22:42:15;4.80;;;3.25;;
48873;SDS011;66155;46.204;5.220;2023-07-31T22:47:15;4.68;;;3.20;;
48873;SDS011;66155;46.204;5.220;2023-07-31T22:52:15;4.47;;;3.37;;
48873;SDS011;66155;46.204;5.220;2023-07-31T22:57:16;4.30;;;3.30;;
48873;SDS011;66155;46.204;5.220;2023-07-31T23:02:16;7.43;;;3.40;;
48873;SDS011;66155;46.204;5.220;2023-07-31T23:07:16;7.72;;;3.72;;
48873;SDS011;66155;46.204;5.220;2023-07-31T23:12:17;4.28;;;3.10;;
48873;SDS011;66155;46.204;5.220;2023-07-31T23:17:18;5.32;;;3.25;;
48873;SDS011;66155;46.204;5.220;2023-07-31T23:22:18;6.10;;;3.40;;
48873;SDS011;66155;46.204;5.220;2023-07-31T23:27:19;7.20;;;3.40;;
48873;SDS011;66155;46.204;5.220;2023-07-31T23:32:19;7.50;;;3.60;;
48873;SDS011;66155;46.204;5.220;2023-07-31T23:37:19;5.07;;;2.93;;
48873;SDS011;66155;46.204;5.220;2023-07-31T23:42:19;8.50;;;3.87;;
48873;SDS011;66155;46.204;5.220;2023-07-31T23:47:20;4.77;;;3.00;;
48873;SDS011;66155;46.204;5.220;2023-07-31T23:52:20;4.72;;;3.10;;
48873;SDS011;66155;46.204;5.220;2023-07-31T23:57:20;4.47;;;3.33;;
